sensor_id;sensor_type;location;lat;lon;timestamp;temperature;humidity
47616;DHT22;69146;52.266;7.000;2023-10-13T00:00:38;16.50;99.90
47616;DHT22;69146;52.266;7.000;2023-10-13T00:03:24;16.50;99.90
47616;DHT22;69146;52.266;7.000;2023-10-13T00:06:11;16.40;99.90
47616;DHT22;69146;52.266;7.000;2023-10-13T00:08:56;16.50;99.90
47616;DHT22;69146;52.266;7.000;2023-10-13T00:11:43;16.50;99.90
47616;DHT22;69146;52.266;7.000;2023-10-13T00:14:29;16.40;99.90
47616;DHT22;69146;52.266;7.000;2023-10-13T00:17:19;16.40;99.90
47616;DHT22;69146;52.266;7.000;2023-10-13T00:20:05;16.40;99.90
47616;DHT22;69146;52.266;7.000;2023-10-13T00:22:57;16.40;99.90
47616;DHT22;69146;52.266;7.000;2023-10-13T00:25:42;16.50;99.90
47616;DHT22;69146;52.266;7.000;2023-10-13T00:28:34;16.50;99.90
47616;DHT22;69146;52.266;7.000;2023-10-13T00:31:29;16.50;99.90
47616;DHT22;69146;52.266;7.000;2023-10-13T00:34:17;16.50;99.90
47616;DHT22;69146;52.266;7.000;2023-10-13T00:37:05;16.50;99.90
47616;DHT22;69146;52.266;7.000;2023-10-13T00:40:12;16.50;99.90
47616;DHT22;69146;52.266;7.000;2023-10-13T00:43:15;16.50;99.90
47616;DHT22;69146;52.266;7.000;2023-10-13T00:46:03;16.60;99.90
47616;DHT22;69146;52.266;7.000;2023-10-13T00:48:48;16.60;99.90
47616;DHT22;69146;52.266;7.000;2023-10-13T00:51:38;16.50;99.90
47616;DHT22;69146;52.266;7.000;2023-10-13T00:54:31;16.50;99.90
47616;DHT22;69146;52.266;7.000;2023-10-13T00:57:17;16.50;99.90
47616;DHT22;69146;52.266;7.000;2023-10-13T01:00:11;16.50;99.90
47616;DHT22;69146;52.266;7.000;2023-10-13T01:03:09;16.50;99.90
47616;DHT22;69146;52.266;7.000;2023-10-13T01:05:54;16.40;99.90
47616;DHT22;69146;52.266;7.000;2023-10-13T01:08:39;16.40;99.90
47616;DHT22;69146;52.266;7.000;2023-10-13T01:11:23;16.50;99.90
47616;DHT22;69146;52.266;7.000;2023-10-13T01:14:09;16.50;99.90
47616;DHT22;69146;52.266;7.000;2023-10-13T01:16:59;16.50;99.90
47616;DHT22;69146;52.266;7.000;2023-10-13T01:19:44;16.50;99.90
47616;DHT22;69146;52.266;7.000;2023-10-13T01:22:29;16.50;99.90
47616;DHT22;69146;52.266;7.000;2023-10-13T01:25:16;16.50;99.90
47616;DHT22;69146;52.266;7.000;2023-10-13T01:28:03;16.50;99.90
47616;DHT22;69146;52.266;7.000;2023-10-13T01:30:51;16.50;99.90
47616;DHT22;69146;52.266;7.000;2023-10-13T01:33:36;16.50;99.90
47616;DHT22;69146;52.266;7.000;2023-10-13T01:36:21;16.50;99.90
47616;DHT22;69146;52.266;7.000;2023-10-13T01:39:06;16.50;99.90
47616;DHT22;69146;52.266;7.000;2023-10-13T01:41:52;16.50;99.90
47616;DHT22;69146;52.266;7.000;2023-10-13T01:44:39;16.40;99.90
47616;DHT22;69146;52.266;7.000;2023-10-13T01:47:23;16.50;99.90
47616;DHT22;69146;52.266;7.000;2023-10-13T01:50:08;16.50;99.90
47616;DHT22;69146;52.266;7.000;2023-10-13T01:53:04;16.50;99.90
47616;DHT22;69146;52.266;7.000;2023-10-13T01:55:56;16.50;99.90
47616;DHT22;69146;52.266;7.000;2023-10-13T01:58:45;16.50;99.90
47616;DHT22;69146;52.266;7.000;2023-10-13T02:01:33;16.50;99.90
47616;DHT22;69146;52.266;7.000;2023-10-13T02:04:18;16.50;99.90
47616;DHT22;69146;52.266;7.000;2023-10-13T02:07:05;16.60;99.90
47616;DHT22;69146;52.266;7.000;2023-10-13T02:09:53;16.60;99.90
47616;DHT22;69146;52.266;7.000;2023-10-13T02:12:38;16.50;99.90
47616;DHT22;69146;52.266;7.000;2023-10-13T02:15:31;16.50;99.90
47616;DHT22;69146;52.266;7.000;2023-10-13T02:18:19;16.50;99.90
47616;DHT22;69146;52.266;7.000;2023-10-13T02:21:10;16.50;99.90
47616;DHT22;69146;52.266;7.000;2023-10-13T02:23:58;16.60;99.90
47616;DHT22;69146;52.266;7.000;2023-10-13T02:26:47;16.60;99.90
47616;DHT22;69146;52.266;7.000;2023-10-13T02:29:32;16.60;99.90
47616;DHT22;69146;52.266;7.000;2023-10-13T02:32:25;16.50;99.90
47616;DHT22;69146;52.266;7.000;2023-10-13T02:35:11;16.50;99.90
47616;DHT22;69146;52.266;7.000;2023-10-13T02:38:01;16.50;99.90
47616;DHT22;69146;52.266;7.000;2023-10-13T02:40:55;16.50;99.90
47616;DHT22;69146;52.266;7.000;2023-10-13T02:43:40;16.50;99.90
47616;DHT22;69146;52.266;7.000;2023-10-13T02:46:27;16.50;99.90
47616;DHT22;69146;52.266;7.000;2023-10-13T02:49:15;16.60;99.90
47616;DHT22;69146;52.266;7.000;2023-10-13T02:52:03;16.60;99.90
47616;DHT22;69146;52.266;7.000;2023-10-13T02:54:53;16.60;99.90
47616;DHT22;69146;52.266;7.000;2023-10-13T02:57:37;16.60;99.90
47616;DHT22;69146;52.266;7.000;2023-10-13T03:00:23;16.70;99.90
47616;DHT22;69146;52.266;7.000;2023-10-13T03:03:08;16.70;99.90
47616;DHT22;69146;52.266;7.000;2023-10-13T03:05:56;16.70;99.90
47616;DHT22;69146;52.266;7.000;2023-10-13T03:08:44;16.60;99.90
47616;DHT22;69146;52.266;7.000;2023-10-13T03:11:28;16.60;99.90
47616;DHT22;69146;52.266;7.000;2023-10-13T03:14:17;16.60;99.90
47616;DHT22;69146;52.266;7.000;2023-10-13T03:17:17;16.60;99.90
47616;DHT22;69146;52.266;7.000;2023-10-13T03:20:03;16.60;99.90
47616;DHT22;69146;52.266;7.000;2023-10-13T03:22:53;16.60;99.90
47616;DHT22;69146;52.266;7.000;2023-10-13T03:25:37;16.60;99.90
47616;DHT22;69146;52.266;7.000;2023-10-13T03:28:27;16.50;99.90
47616;DHT22;69146;52.266;7.000;2023-10-13T03:31:18;16.60;99.90
47616;DHT22;69146;52.266;7.000;2023-10-13T03:34:04;16.60;99.90
47616;DHT22;69146;52.266;7.000;2023-10-13T03:36:48;16.50;99.90
47616;DHT22;69146;52.266;7.000;2023-10-13T03:39:44;16.50;99.90
47616;DHT22;69146;52.266;7.000;2023-10-13T03:42:29;16.50;99.90
47616;DHT22;69146;52.266;7.000;2023-10-13T03:45:16;16.60;99.90
47616;DHT22;69146;52.266;7.000;2023-10-13T03:48:03;16.50;99.90
47616;DHT22;69146;52.266;7.000;2023-10-13T03:50:53;16.50;99.90
47616;DHT22;69146;52.266;7.000;2023-10-13T03:53:50;16.50;99.90
47616;DHT22;69146;52.266;7.000;2023-10-13T03:56:38;16.50;99.90
47616;DHT22;69146;52.266;7.000;2023-10-13T03:59:23;16.50;99.90
47616;DHT22;69146;52.266;7.000;2023-10-13T04:02:08;16.40;99.90
47616;DHT22;69146;52.266;7.000;2023-10-13T04:05:03;16.40;99.90
47616;DHT22;69146;52.266;7.000;2023-10-13T04:07:54;16.40;99.90
47616;DHT22;69146;52.266;7.000;2023-10-13T04:11:13;16.40;99.90
47616;DHT22;69146;52.266;7.000;2023-10-13T04:14:17;16.50;99.90
47616;DHT22;69146;52.266;7.000;2023-10-13T04:17:28;16.50;99.90
47616;DHT22;69146;52.266;7.000;2023-10-13T04:20:14;16.50;99.90
47616;DHT22;69146;52.266;7.000;2023-10-13T04:23:12;16.40;99.90
47616;DHT22;69146;52.266;7.000;2023-10-13T04:26:04;16.40;99.90
47616;DHT22;69146;52.266;7.000;2023-10-13T04:28:52;16.40;99.90
47616;DHT22;69146;52.266;7.000;2023-10-13T04:31:38;16.40;99.90
47616;DHT22;69146;52.266;7.000;2023-10-13T04:34:31;16.40;99.90
47616;DHT22;69146;52.266;7.000;2023-10-13T04:37:23;16.40;99.90
47616;DHT22;69146;52.266;7.000;2023-10-13T04:40:13;16.50;99.90
47616;DHT22;69146;52.266;7.000;2023-10-13T04:42:59;16.50;99.90
47616;DHT22;69146;52.266;7.000;2023-10-13T04:45:48;16.40;99.90
47616;DHT22;69146;52.266;7.000;2023-10-13T04:48:40;16.50;99.90
47616;DHT22;69146;52.266;7.000;2023-10-13T04:51:31;16.50;99.90
47616;DHT22;69146;52.266;7.000;2023-10-13T04:54:34;16.40;99.90
47616;DHT22;69146;52.266;7.000;2023-10-13T04:57:38;16.50;99.90
47616;DHT22;69146;52.266;7.000;2023-10-13T05:00:34;16.40;99.90
47616;DHT22;69146;52.266;7.000;2023-10-13T05:03:49;16.40;99.90
47616;DHT22;69146;52.266;7.000;2023-10-13T05:06:49;16.40;99.90
47616;DHT22;69146;52.266;7.000;2023-10-13T05:09:57;16.50;99.90
47616;DHT22;69146;52.266;7.000;2023-10-13T05:13:01;16.50;99.90
47616;DHT22;69146;52.266;7.000;2023-10-13T05:16:04;16.50;99.90
47616;DHT22;69146;52.266;7.000;2023-10-13T05:19:09;16.50;99.90
47616;DHT22;69146;52.266;7.000;2023-10-13T05:22:13;16.50;99.90
47616;DHT22;69146;52.266;7.000;2023-10-13T05:25:16;16.40;99.90
47616;DHT22;69146;52.266;7.000;2023-10-13T05:28:20;16.40;99.90
47616;DHT22;69146;52.266;7.000;2023-10-13T05:31:23;16.40;99.90
47616;DHT22;69146;52.266;7.000;2023-10-13T05:34:28;16.40;99.90
47616;DHT22;69146;52.266;7.000;2023-10-13T05:37:31;16.40;99.90
47616;DHT22;69146;52.266;7.000;2023-10-13T05:40:35;16.30;99.90
47616;DHT22;69146;52.266;7.000;2023-10-13T05:43:38;16.30;99.90
47616;DHT22;69146;52.266;7.000;2023-10-13T05:46:42;16.30;99.90
47616;DHT22;69146;52.266;7.000;2023-10-13T05:49:47;16.30;99.90
47616;DHT22;69146;52.266;7.000;2023-10-13T05:52:37;16.30;99.90
47616;DHT22;69146;52.266;7.000;2023-10-13T05:55:45;16.30;99.90
47616;DHT22;69146;52.266;7.000;2023-10-13T05:58:48;16.30;99.90
47616;DHT22;69146;52.266;7.000;2023-10-13T06:01:51;16.30;99.90
47616;DHT22;69146;52.266;7.000;2023-10-13T06:04:56;16.30;99.90
47616;DHT22;69146;52.266;7.000;2023-10-13T06:08:00;16.40;99.90
47616;DHT22;69146;52.266;7.000;2023-10-13T06:11:04;16.40;99.90
47616;DHT22;69146;52.266;7.000;2023-10-13T06:14:07;16.40;99.90
47616;DHT22;69146;52.266;7.000;2023-10-13T06:17:10;16.50;99.90
47616;DHT22;69146;52.266;7.000;2023-10-13T06:20:15;16.40;99.90
47616;DHT22;69146;52.266;7.000;2023-10-13T06:23:19;16.60;99.90
47616;DHT22;69146;52.266;7.000;2023-10-13T06:26:23;16.60;99.90
47616;DHT22;69146;52.266;7.000;2023-10-13T06:29:26;16.70;99.90
47616;DHT22;69146;52.266;7.000;2023-10-13T06:32:11;16.70;99.90
47616;DHT22;69146;52.266;7.000;2023-10-13T06:34:56;16.80;99.90
47616;DHT22;69146;52.266;7.000;2023-10-13T06:37:51;16.90;99.90
47616;DHT22;69146;52.266;7.000;2023-10-13T06:40:35;17.00;99.90
47616;DHT22;69146;52.266;7.000;2023-10-13T06:43:21;17.00;99.90
47616;DHT22;69146;52.266;7.000;2023-10-13T06:46:07;17.10;99.90
47616;DHT22;69146;52.266;7.000;2023-10-13T06:48:58;17.10;99.90
47616;DHT22;69146;52.266;7.000;2023-10-13T06:51:44;17.10;99.90
47616;DHT22;69146;52.266;7.000;2023-10-13T06:54:33;17.10;99.90
47616;DHT22;69146;52.266;7.000;2023-10-13T06:57:21;17.10;99.90
47616;DHT22;69146;52.266;7.000;2023-10-13T07:00:06;17.10;99.90
47616;DHT22;69146;52.266;7.000;2023-10-13T07:02:54;17.10;99.90
47616;DHT22;69146;52.266;7.000;2023-10-13T07:05:49;17.10;99.90
47616;DHT22;69146;52.266;7.000;2023-10-13T07:08:33;17.10;99.90
47616;DHT22;69146;52.266;7.000;2023-10-13T07:11:25;17.10;99.90
47616;DHT22;69146;52.266;7.000;2023-10-13T07:14:18;17.10;99.90
47616;DHT22;69146;52.266;7.000;2023-10-13T07:17:04;17.20;99.90
47616;DHT22;69146;52.266;7.000;2023-10-13T07:19:50;17.20;99.90
47616;DHT22;69146;52.266;7.000;2023-10-13T07:22:37;17.20;99.90
47616;DHT22;69146;52.266;7.000;2023-10-13T07:25:24;17.30;99.90
47616;DHT22;69146;52.266;7.000;2023-10-13T07:28:11;17.30;99.90
47616;DHT22;69146;52.266;7.000;2023-10-13T07:30:56;17.40;99.90
47616;DHT22;69146;52.266;7.000;2023-10-13T07:33:40;17.40;99.90
47616;DHT22;69146;52.266;7.000;2023-10-13T07:36:25;17.50;99.90
47616;DHT22;69146;52.266;7.000;2023-10-13T07:39:18;17.50;99.90
47616;DHT22;69146;52.266;7.000;2023-10-13T07:42:07;17.50;99.90
47616;DHT22;69146;52.266;7.000;2023-10-13T07:45:00;17.50;99.90
47616;DHT22;69146;52.266;7.000;2023-10-13T07:47:48;17.60;99.90
47616;DHT22;69146;52.266;7.000;2023-10-13T07:50:34;17.60;99.90
47616;DHT22;69146;52.266;7.000;2023-10-13T07:53:19;17.70;99.90
47616;DHT22;69146;52.266;7.000;2023-10-13T07:56:07;17.70;99.90
47616;DHT22;69146;52.266;7.000;2023-10-13T07:58:58;17.70;99.90
47616;DHT22;69146;52.266;7.000;2023-10-13T08:01:46;17.70;99.90
47616;DHT22;69146;52.266;7.000;2023-10-13T08:04:31;17.80;99.90
47616;DHT22;69146;52.266;7.000;2023-10-13T08:07:19;17.80;99.90
47616;DHT22;69146;52.266;7.000;2023-10-13T08:10:12;17.80;99.90
47616;DHT22;69146;52.266;7.000;2023-10-13T08:13:00;17.80;99.90
47616;DHT22;69146;52.266;7.000;2023-10-13T08:15:44;17.80;99.90
47616;DHT22;69146;52.266;7.000;2023-10-13T08:18:33;17.80;99.90
47616;DHT22;69146;52.266;7.000;2023-10-13T08:21:17;17.80;99.90
47616;DHT22;69146;52.266;7.000;2023-10-13T08:24:07;17.80;99.90
47616;DHT22;69146;52.266;7.000;2023-10-13T08:26:51;17.80;99.90
47616;DHT22;69146;52.266;7.000;2023-10-13T08:30:02;17.80;99.90
47616;DHT22;69146;52.266;7.000;2023-10-13T08:32:47;17.80;99.90
47616;DHT22;69146;52.266;7.000;2023-10-13T08:35:49;17.90;99.90
47616;DHT22;69146;52.266;7.000;2023-10-13T08:39:00;17.90;99.90
47616;DHT22;69146;52.266;7.000;2023-10-13T08:42:04;17.90;99.90
47616;DHT22;69146;52.266;7.000;2023-10-13T08:44:59;17.90;99.90
47616;DHT22;69146;52.266;7.000;2023-10-13T08:47:49;18.00;99.90
47616;DHT22;69146;52.266;7.000;2023-10-13T08:50:38;18.10;99.90
47616;DHT22;69146;52.266;7.000;2023-10-13T08:53:37;18.10;99.90
47616;DHT22;69146;52.266;7.000;2023-10-13T08:56:36;18.20;99.90
47616;DHT22;69146;52.266;7.000;2023-10-13T08:59:31;18.30;99.90
47616;DHT22;69146;52.266;7.000;2023-10-13T09:02:23;18.30;99.90
47616;DHT22;69146;52.266;7.000;2023-10-13T09:05:27;18.30;99.90
47616;DHT22;69146;52.266;7.000;2023-10-13T09:08:46;18.40;99.90
47616;DHT22;69146;52.266;7.000;2023-10-13T09:11:51;18.50;99.90
47616;DHT22;69146;52.266;7.000;2023-10-13T09:14:38;18.60;99.90
47616;DHT22;69146;52.266;7.000;2023-10-13T09:17:29;18.60;99.90
47616;DHT22;69146;52.266;7.000;2023-10-13T09:20:27;18.80;99.90
47616;DHT22;69146;52.266;7.000;2023-10-13T09:23:24;18.90;99.90
47616;DHT22;69146;52.266;7.000;2023-10-13T09:26:10;19.00;99.90
47616;DHT22;69146;52.266;7.000;2023-10-13T09:28:56;19.00;99.90
47616;DHT22;69146;52.266;7.000;2023-10-13T09:31:41;19.10;99.90
47616;DHT22;69146;52.266;7.000;2023-10-13T09:34:29;19.20;99.90
47616;DHT22;69146;52.266;7.000;2023-10-13T09:37:14;19.30;99.90
47616;DHT22;69146;52.266;7.000;2023-10-13T09:40:06;19.40;99.90
47616;DHT22;69146;52.266;7.000;2023-10-13T09:43:10;19.40;99.90
47616;DHT22;69146;52.266;7.000;2023-10-13T09:45:59;19.40;99.90
47616;DHT22;69146;52.266;7.000;2023-10-13T09:48:51;19.50;99.90
47616;DHT22;69146;52.266;7.000;2023-10-13T09:51:49;19.50;99.90
47616;DHT22;69146;52.266;7.000;2023-10-13T09:54:38;19.50;99.90
47616;DHT22;69146;52.266;7.000;2023-10-13T09:57:27;19.60;99.90
47616;DHT22;69146;52.266;7.000;2023-10-13T10:00:15;19.60;99.90
47616;DHT22;69146;52.266;7.000;2023-10-13T10:03:19;19.60;99.90
47616;DHT22;69146;52.266;7.000;2023-10-13T10:06:22;19.60;99.90
47616;DHT22;69146;52.266;7.000;2023-10-13T10:09:12;19.60;99.90
47616;DHT22;69146;52.266;7.000;2023-10-13T10:18:18;19.60;99.90
47616;DHT22;69146;52.266;7.000;2023-10-13T10:21:05;19.60;99.90
47616;DHT22;69146;52.266;7.000;2023-10-13T10:23:55;19.70;99.90
47616;DHT22;69146;52.266;7.000;2023-10-13T10:26:49;19.70;99.90
47616;DHT22;69146;52.266;7.000;2023-10-13T10:29:35;19.70;99.90
47616;DHT22;69146;52.266;7.000;2023-10-13T10:32:20;19.70;99.90
47616;DHT22;69146;52.266;7.000;2023-10-13T10:35:07;19.70;99.90
47616;DHT22;69146;52.266;7.000;2023-10-13T10:37:51;19.70;99.90
47616;DHT22;69146;52.266;7.000;2023-10-13T10:40:48;19.70;99.90
47616;DHT22;69146;52.266;7.000;2023-10-13T10:43:36;19.70;99.90
47616;DHT22;69146;52.266;7.000;2023-10-13T10:46:27;19.70;99.90
47616;DHT22;69146;52.266;7.000;2023-10-13T10:49:11;19.70;99.90
47616;DHT22;69146;52.266;7.000;2023-10-13T10:51:59;19.70;99.90
47616;DHT22;69146;52.266;7.000;2023-10-13T10:54:58;19.70;99.90
47616;DHT22;69146;52.266;7.000;2023-10-13T10:57:43;19.80;99.90
47616;DHT22;69146;52.266;7.000;2023-10-13T11:00:27;19.80;99.90
47616;DHT22;69146;52.266;7.000;2023-10-13T11:03:25;19.80;99.90
47616;DHT22;69146;52.266;7.000;2023-10-13T11:06:13;19.90;99.90
47616;DHT22;69146;52.266;7.000;2023-10-13T11:09:04;19.90;99.90
47616;DHT22;69146;52.266;7.000;2023-10-13T11:11:50;20.00;99.90
47616;DHT22;69146;52.266;7.000;2023-10-13T11:14:37;20.00;99.90
47616;DHT22;69146;52.266;7.000;2023-10-13T11:17:23;20.10;99.90
47616;DHT22;69146;52.266;7.000;2023-10-13T11:20:23;20.10;99.90
47616;DHT22;69146;52.266;7.000;2023-10-13T11:23:17;20.10;99.90
47616;DHT22;69146;52.266;7.000;2023-10-13T11:26:07;20.10;99.90
47616;DHT22;69146;52.266;7.000;2023-10-13T11:28:51;20.30;99.90
47616;DHT22;69146;52.266;7.000;2023-10-13T11:31:36;20.40;99.90
47616;DHT22;69146;52.266;7.000;2023-10-13T11:34:21;20.40;99.90
47616;DHT22;69146;52.266;7.000;2023-10-13T11:37:06;20.50;99.90
47616;DHT22;69146;52.266;7.000;2023-10-13T11:40:11;20.60;99.90
47616;DHT22;69146;52.266;7.000;2023-10-13T11:42:58;20.60;99.90
47616;DHT22;69146;52.266;7.000;2023-10-13T11:45:46;20.70;99.90
47616;DHT22;69146;52.266;7.000;2023-10-13T11:48:57;20.80;99.90
47616;DHT22;69146;52.266;7.000;2023-10-13T11:51:49;21.00;99.90
47616;DHT22;69146;52.266;7.000;2023-10-13T11:54:34;21.10;99.90
47616;DHT22;69146;52.266;7.000;2023-10-13T11:57:20;21.10;99.90
47616;DHT22;69146;52.266;7.000;2023-10-13T12:00:07;21.10;99.90
47616;DHT22;69146;52.266;7.000;2023-10-13T12:03:11;21.10;99.90
47616;DHT22;69146;52.266;7.000;2023-10-13T12:06:14;21.00;99.90
47616;DHT22;69146;52.266;7.000;2023-10-13T12:09:17;21.10;99.90
47616;DHT22;69146;52.266;7.000;2023-10-13T12:12:02;21.10;99.90
47616;DHT22;69146;52.266;7.000;2023-10-13T12:14:48;21.20;99.90
47616;DHT22;69146;52.266;7.000;2023-10-13T12:17:41;21.30;99.90
47616;DHT22;69146;52.266;7.000;2023-10-13T12:20:29;21.30;99.90
47616;DHT22;69146;52.266;7.000;2023-10-13T12:23:16;21.20;99.90
47616;DHT22;69146;52.266;7.000;2023-10-13T12:26:02;21.20;99.90
47616;DHT22;69146;52.266;7.000;2023-10-13T12:28:50;21.20;99.90
47616;DHT22;69146;52.266;7.000;2023-10-13T12:31:38;21.30;99.90
47616;DHT22;69146;52.266;7.000;2023-10-13T12:34:25;21.30;99.90
47616;DHT22;69146;52.266;7.000;2023-10-13T12:37:29;21.30;99.90
47616;DHT22;69146;52.266;7.000;2023-10-13T12:40:20;21.20;99.90
47616;DHT22;69146;52.266;7.000;2023-10-13T12:43:24;21.20;99.90
47616;DHT22;69146;52.266;7.000;2023-10-13T12:46:27;21.20;99.90
47616;DHT22;69146;52.266;7.000;2023-10-13T12:49:33;21.30;99.90
47616;DHT22;69146;52.266;7.000;2023-10-13T12:52:27;21.40;99.90
47616;DHT22;69146;52.266;7.000;2023-10-13T12:55:16;21.50;99.90
47616;DHT22;69146;52.266;7.000;2023-10-13T12:58:05;21.60;99.90
47616;DHT22;69146;52.266;7.000;2023-10-13T13:00:49;21.60;99.90
47616;DHT22;69146;52.266;7.000;2023-10-13T13:03:34;21.60;99.90
47616;DHT22;69146;52.266;7.000;2023-10-13T13:06:20;21.70;99.90
47616;DHT22;69146;52.266;7.000;2023-10-13T13:09:13;21.70;99.90
47616;DHT22;69146;52.266;7.000;2023-10-13T13:11:57;21.70;99.90
47616;DHT22;69146;52.266;7.000;2023-10-13T13:14:42;21.70;99.90
47616;DHT22;69146;52.266;7.000;2023-10-13T13:17:30;21.70;99.90
47616;DHT22;69146;52.266;7.000;2023-10-13T13:20:14;21.80;99.90
47616;DHT22;69146;52.266;7.000;2023-10-13T13:23:19;21.90;99.90
47616;DHT22;69146;52.266;7.000;2023-10-13T13:26:03;21.90;99.90
47616;DHT22;69146;52.266;7.000;2023-10-13T13:28:59;21.90;99.90
47616;DHT22;69146;52.266;7.000;2023-10-13T13:31:43;21.90;99.90
47616;DHT22;69146;52.266;7.000;2023-10-13T13:34:29;21.80;99.90
47616;DHT22;69146;52.266;7.000;2023-10-13T13:37:13;21.80;99.90
47616;DHT22;69146;52.266;7.000;2023-10-13T13:39:59;21.80;99.90
47616;DHT22;69146;52.266;7.000;2023-10-13T13:42:58;21.70;99.90
47616;DHT22;69146;52.266;7.000;2023-10-13T13:45:45;21.70;99.90
47616;DHT22;69146;52.266;7.000;2023-10-13T13:48:29;21.70;99.90
47616;DHT22;69146;52.266;7.000;2023-10-13T13:51:15;21.70;99.90
47616;DHT22;69146;52.266;7.000;2023-10-13T13:53:59;21.80;99.90
47616;DHT22;69146;52.266;7.000;2023-10-13T13:56:45;21.80;99.90
47616;DHT22;69146;52.266;7.000;2023-10-13T13:59:30;21.70;99.90
47616;DHT22;69146;52.266;7.000;2023-10-13T14:02:17;21.80;99.90
47616;DHT22;69146;52.266;7.000;2023-10-13T14:05:05;21.70;99.90
47616;DHT22;69146;52.266;7.000;2023-10-13T14:07:50;21.70;99.90
47616;DHT22;69146;52.266;7.000;2023-10-13T14:10:35;21.70;99.90
47616;DHT22;69146;52.266;7.000;2023-10-13T14:13:41;21.60;99.90
47616;DHT22;69146;52.266;7.000;2023-10-13T14:16:33;21.60;99.90
47616;DHT22;69146;52.266;7.000;2023-10-13T14:19:17;21.60;99.90
47616;DHT22;69146;52.266;7.000;2023-10-13T14:22:11;21.60;99.90
47616;DHT22;69146;52.266;7.000;2023-10-13T14:24:56;21.50;99.90
47616;DHT22;69146;52.266;7.000;2023-10-13T14:27:40;21.60;99.90
47616;DHT22;69146;52.266;7.000;2023-10-13T14:30:26;21.60;99.90
47616;DHT22;69146;52.266;7.000;2023-10-13T14:33:15;21.50;99.90
47616;DHT22;69146;52.266;7.000;2023-10-13T14:35:59;21.40;99.90
47616;DHT22;69146;52.266;7.000;2023-10-13T14:38:44;21.30;99.90
47616;DHT22;69146;52.266;7.000;2023-10-13T14:41:32;21.20;99.90
47616;DHT22;69146;52.266;7.000;2023-10-13T14:44:16;21.30;99.90
47616;DHT22;69146;52.266;7.000;2023-10-13T14:47:02;21.30;99.90
47616;DHT22;69146;52.266;7.000;2023-10-13T14:49:51;21.20;99.90
47616;DHT22;69146;52.266;7.000;2023-10-13T14:52:35;21.30;99.90
47616;DHT22;69146;52.266;7.000;2023-10-13T14:55:20;21.30;99.90
47616;DHT22;69146;52.266;7.000;2023-10-13T14:58:05;21.30;99.90
47616;DHT22;69146;52.266;7.000;2023-10-13T15:00:52;21.30;99.90
47616;DHT22;69146;52.266;7.000;2023-10-13T15:03:38;21.30;99.90
47616;DHT22;69146;52.266;7.000;2023-10-13T15:06:23;21.30;99.90
47616;DHT22;69146;52.266;7.000;2023-10-13T15:09:17;21.20;99.90
47616;DHT22;69146;52.266;7.000;2023-10-13T15:12:07;21.10;99.90
47616;DHT22;69146;52.266;7.000;2023-10-13T15:14:54;21.10;99.90
47616;DHT22;69146;52.266;7.000;2023-10-13T15:17:40;21.10;99.90
47616;DHT22;69146;52.266;7.000;2023-10-13T15:20:26;21.10;99.90
47616;DHT22;69146;52.266;7.000;2023-10-13T15:23:11;21.10;99.90
47616;DHT22;69146;52.266;7.000;2023-10-13T15:26:03;21.10;99.90
47616;DHT22;69146;52.266;7.000;2023-10-13T15:28:50;21.00;99.90
47616;DHT22;69146;52.266;7.000;2023-10-13T15:31:39;21.00;99.90
47616;DHT22;69146;52.266;7.000;2023-10-13T15:34:25;20.90;99.90
47616;DHT22;69146;52.266;7.000;2023-10-13T15:37:14;20.90;99.90
47616;DHT22;69146;52.266;7.000;2023-10-13T15:39:59;20.90;99.90
47616;DHT22;69146;52.266;7.000;2023-10-13T15:42:47;20.80;99.90
47616;DHT22;69146;52.266;7.000;2023-10-13T15:45:32;20.80;99.90
47616;DHT22;69146;52.266;7.000;2023-10-13T15:48:27;20.80;99.90
47616;DHT22;69146;52.266;7.000;2023-10-13T15:51:11;20.80;99.90
47616;DHT22;69146;52.266;7.000;2023-10-13T15:54:00;20.80;99.90
47616;DHT22;69146;52.266;7.000;2023-10-13T15:56:45;20.60;99.90
47616;DHT22;69146;52.266;7.000;2023-10-13T15:59:29;20.30;99.90
47616;DHT22;69146;52.266;7.000;2023-10-13T16:02:14;20.10;99.90
47616;DHT22;69146;52.266;7.000;2023-10-13T16:05:04;19.90;99.90
47616;DHT22;69146;52.266;7.000;2023-10-13T16:07:51;19.60;99.90
47616;DHT22;69146;52.266;7.000;2023-10-13T16:10:37;19.60;99.90
47616;DHT22;69146;52.266;7.000;2023-10-13T16:13:21;19.50;99.90
47616;DHT22;69146;52.266;7.000;2023-10-13T16:16:05;19.40;99.90
47616;DHT22;69146;52.266;7.000;2023-10-13T16:18:50;19.30;99.90
47616;DHT22;69146;52.266;7.000;2023-10-13T16:21:35;19.30;99.90
47616;DHT22;69146;52.266;7.000;2023-10-13T16:24:23;19.10;99.90
47616;DHT22;69146;52.266;7.000;2023-10-13T16:27:08;19.10;99.90
47616;DHT22;69146;52.266;7.000;2023-10-13T16:29:53;19.10;99.90
47616;DHT22;69146;52.266;7.000;2023-10-13T16:32:38;19.10;99.90
47616;DHT22;69146;52.266;7.000;2023-10-13T16:35:24;19.10;99.90
47616;DHT22;69146;52.266;7.000;2023-10-13T16:38:08;19.10;99.90
47616;DHT22;69146;52.266;7.000;2023-10-13T16:40:54;19.10;99.90
47616;DHT22;69146;52.266;7.000;2023-10-13T16:43:40;19.10;99.90
47616;DHT22;69146;52.266;7.000;2023-10-13T16:46:26;19.10;99.90
47616;DHT22;69146;52.266;7.000;2023-10-13T16:49:10;19.10;99.90
47616;DHT22;69146;52.266;7.000;2023-10-13T16:51:55;19.10;99.90
47616;DHT22;69146;52.266;7.000;2023-10-13T16:54:40;19.10;99.90
47616;DHT22;69146;52.266;7.000;2023-10-13T16:57:24;19.20;99.90
47616;DHT22;69146;52.266;7.000;2023-10-13T17:00:12;19.20;99.90
47616;DHT22;69146;52.266;7.000;2023-10-13T17:02:57;19.30;99.90
47616;DHT22;69146;52.266;7.000;2023-10-13T17:05:42;19.20;99.90
47616;DHT22;69146;52.266;7.000;2023-10-13T17:08:26;19.30;99.90
47616;DHT22;69146;52.266;7.000;2023-10-13T17:11:14;19.30;99.90
47616;DHT22;69146;52.266;7.000;2023-10-13T17:13:58;19.40;99.90
47616;DHT22;69146;52.266;7.000;2023-10-13T17:16:44;19.40;99.90
47616;DHT22;69146;52.266;7.000;2023-10-13T17:19:29;19.40;99.90
47616;DHT22;69146;52.266;7.000;2023-10-13T17:22:14;19.40;99.90
47616;DHT22;69146;52.266;7.000;2023-10-13T17:24:58;19.30;99.90
47616;DHT22;69146;52.266;7.000;2023-10-13T17:27:45;19.30;99.90
47616;DHT22;69146;52.266;7.000;2023-10-13T17:30:30;19.30;99.90
47616;DHT22;69146;52.266;7.000;2023-10-13T17:33:15;19.30;99.90
47616;DHT22;69146;52.266;7.000;2023-10-13T17:36:00;19.40;99.90
47616;DHT22;69146;52.266;7.000;2023-10-13T17:38:44;19.40;99.90
47616;DHT22;69146;52.266;7.000;2023-10-13T17:41:28;19.40;99.90
47616;DHT22;69146;52.266;7.000;2023-10-13T17:44:16;19.50;99.90
47616;DHT22;69146;52.266;7.000;2023-10-13T17:47:01;19.50;99.90
47616;DHT22;69146;52.266;7.000;2023-10-13T17:49:47;19.50;99.90
47616;DHT22;69146;52.266;7.000;2023-10-13T17:52:35;19.50;99.90
47616;DHT22;69146;52.266;7.000;2023-10-13T17:55:25;19.40;99.90
47616;DHT22;69146;52.266;7.000;2023-10-13T17:58:11;19.30;99.90
47616;DHT22;69146;52.266;7.000;2023-10-13T18:00:58;19.10;99.90